createdAt,value
2018-05-18T11:25:57.072Z,28.37
2018-05-18T11:28:22.919Z,25.97
2018-05-18T11:30:48.589Z,27.90
2018-05-18T11:33:14.452Z,23.43
2018-05-18T11:35:40.320Z,23.93
2018-05-18T11:38:05.882Z,27.63
2018-05-18T11:40:31.541Z,23.60
2018-05-18T11:42:57.376Z,26.33
2018-05-18T11:45:22.960Z,20.67
2018-05-18T11:47:48.576Z,23.70
2018-05-18T11:50:14.501Z,23.67
2018-05-18T11:52:40.127Z,22.37
2018-05-18T11:55:05.791Z,24.73
2018-05-18T11:57:32.666Z,32.93
2018-05-18T11:59:58.291Z,21.90
2018-05-18T12:02:24.009Z,24.43
2018-05-18T12:04:49.786Z,19.57
2018-05-18T12:07:15.417Z,24.37
2018-05-18T12:09:41.225Z,24.50
2018-05-18T12:12:07.056Z,29.70
2018-05-18T12:14:32.626Z,21.53
2018-05-18T12:16:58.205Z,25.23
2018-05-18T12:19:24.090Z,28.77
2018-05-18T12:21:49.781Z,20.77
2018-05-18T12:24:15.365Z,23.17
2018-05-18T12:26:41.135Z,25.70
2018-05-18T12:29:06.798Z,20.77
2018-05-18T12:31:32.689Z,26.90
2018-05-18T12:33:58.416Z,19.57
2018-05-18T12:36:24.099Z,17.80
2018-05-18T12:38:49.953Z,21.03
2018-05-18T12:41:15.697Z,25.70
2018-05-18T12:43:41.275Z,19.50
2018-05-18T12:46:07.194Z,25.17
2018-05-18T12:48:33.027Z,19.97
2018-05-18T12:50:58.890Z,24.10
2018-05-18T12:53:24.482Z,20.97
2018-05-18T12:55:50.539Z,21.83
2018-05-18T12:58:16.209Z,17.63
2018-05-18T13:00:41.775Z,20.73
2018-05-18T13:03:07.558Z,21.12
2018-05-18T13:05:34.214Z,19.43
2018-05-18T13:07:59.762Z,21.03
2018-05-18T13:10:25.546Z,20.13
2018-05-18T13:12:51.139Z,17.17
2018-05-18T13:15:17.167Z,18.73
2018-05-18T13:17:42.961Z,20.80
2018-05-18T13:20:08.556Z,22.77
2018-05-18T13:22:34.218Z,20.30
2018-05-18T13:25:00.057Z,19.98
2018-05-18T13:27:25.685Z,18.80
2018-05-18T13:29:51.274Z,17.93
2018-05-18T13:32:17.144Z,16.70
2018-05-18T13:34:42.861Z,18.50
2018-05-18T13:37:08.497Z,15.77
2018-05-18T13:39:34.485Z,16.47
2018-05-18T13:42:00.219Z,18.43
2018-05-18T13:44:25.862Z,19.80
2018-05-18T13:46:51.781Z,16.37
2018-05-18T13:49:17.478Z,20.37
2018-05-18T13:51:43.229Z,19.87
2018-05-18T13:54:08.848Z,16.00
2018-05-18T13:56:34.423Z,16.07
2018-05-18T13:59:00.248Z,18.10
2018-05-18T14:01:26.324Z,19.73
2018-05-18T14:03:51.971Z,17.50
2018-05-18T14:06:17.569Z,18.70
2018-05-18T14:08:43.332Z,23.43
2018-05-18T14:11:08.978Z,23.07
2018-05-18T14:13:34.596Z,20.27
2018-05-18T14:16:00.366Z,20.80
2018-05-18T14:18:26.796Z,21.48
2018-05-18T14:20:52.396Z,21.60
2018-05-18T14:23:18.351Z,24.77
2018-05-18T14:25:44.028Z,22.53
2018-05-18T14:28:09.917Z,23.80
2018-05-18T14:30:35.490Z,17.00
2018-05-18T14:33:02.251Z,19.70
2018-05-18T14:35:27.914Z,19.70
2018-05-18T14:37:53.830Z,18.53
2018-05-18T14:40:19.386Z,24.50
2018-05-18T14:42:45.233Z,20.33
2018-05-18T14:45:11.033Z,23.40
2018-05-18T14:47:36.693Z,24.50
2018-05-18T14:50:02.322Z,19.77
2018-05-18T14:52:28.625Z,21.33
2018-05-18T14:54:54.217Z,20.03
2018-05-18T14:57:21.103Z,19.47
2018-05-18T14:59:46.924Z,17.60
2018-05-18T15:02:12.633Z,22.90
2018-05-18T15:04:38.340Z,20.83
2018-05-18T15:07:04.145Z,20.03
2018-05-18T15:09:29.733Z,25.13
2018-05-18T15:11:55.325Z,22.07
2018-05-18T15:14:21.200Z,20.60
2018-05-18T15:16:46.794Z,22.47
2018-05-18T15:19:12.813Z,22.27
2018-05-18T15:21:38.466Z,20.70
2018-05-18T15:24:04.355Z,22.53
2018-05-18T15:26:30.138Z,26.17
2018-05-18T15:28:55.718Z,24.63
2018-05-18T15:31:21.320Z,24.63
2018-05-18T15:33:47.243Z,22.53
2018-05-18T15:36:12.878Z,25.40
2018-05-18T15:38:38.495Z,27.60
2018-05-18T15:41:04.714Z,23.10
2018-05-18T15:43:30.414Z,20.43
2018-05-18T15:45:56.084Z,24.83
2018-05-18T15:48:21.905Z,24.23
2018-05-18T15:50:47.617Z,26.33
2018-05-18T15:53:13.282Z,25.33
2018-05-18T15:55:39.083Z,23.40
2018-05-18T15:58:05.231Z,22.07
2018-05-18T16:00:30.782Z,24.57
2018-05-18T16:02:56.864Z,27.43
2018-05-18T16:05:22.498Z,23.83
2018-05-18T16:07:48.164Z,24.73
2018-05-18T16:10:14.037Z,22.77
2018-05-18T16:12:39.733Z,21.20
2018-05-18T16:15:05.463Z,22.87
2018-05-18T16:17:31.254Z,25.53
2018-05-18T16:19:56.943Z,20.90
2018-05-18T16:22:22.633Z,21.63
2018-05-18T16:24:48.536Z,24.07
2018-05-18T16:27:14.289Z,21.67
2018-05-18T16:29:40.044Z,21.97
2018-05-18T16:32:05.767Z,21.70
2018-05-18T16:34:31.450Z,24.87
2018-05-18T16:36:57.051Z,23.10
2018-05-18T16:39:22.877Z,23.97
2018-05-18T16:41:49.003Z,23.25
2018-05-18T16:44:14.590Z,22.03
2018-05-18T16:46:40.701Z,20.07
2018-05-18T16:49:06.267Z,19.20
2018-05-18T16:51:31.918Z,22.53
2018-05-18T16:53:57.767Z,19.87
2018-05-18T16:56:24.809Z,19.70
2018-05-18T16:58:50.470Z,23.27
2018-05-18T17:01:16.453Z,19.67
2018-05-18T17:03:42.015Z,17.47
2018-05-18T17:06:07.596Z,16.37
2018-05-18T17:08:33.370Z,20.43
2018-05-18T17:10:58.981Z,18.77
2018-05-18T17:13:24.796Z,17.50
2018-05-18T17:15:50.592Z,16.23
2018-05-18T17:18:16.251Z,18.67
2018-05-18T17:20:41.885Z,15.20
2018-05-18T17:23:07.647Z,14.80
2018-05-18T17:25:33.330Z,17.70
2018-05-18T17:27:58.906Z,18.87
2018-05-18T17:30:25.115Z,19.30
2018-05-18T17:32:50.765Z,16.67
2018-05-18T17:35:16.343Z,17.13
2018-05-18T17:37:42.104Z,20.57
2018-05-18T17:40:07.658Z,15.83
2018-05-18T17:42:34.115Z,22.13
2018-05-18T17:44:59.914Z,22.13
2018-05-18T17:47:25.484Z,18.40
2018-05-18T17:49:51.169Z,23.13
2018-05-18T17:52:17.890Z,22.03
2018-05-18T17:54:44.398Z,28.50
2018-05-18T17:57:10.193Z,23.33
2018-05-18T17:59:36.030Z,26.53
2018-05-18T18:02:01.714Z,26.10
2018-05-18T18:04:27.208Z,25.80
2018-05-18T18:06:53.097Z,23.07
2018-05-18T18:09:18.761Z,25.70
2018-05-18T18:11:44.399Z,24.23
2018-05-18T18:14:10.233Z,24.97
2018-05-18T18:16:35.776Z,24.87
2018-05-18T18:19:01.654Z,27.83
2018-05-18T18:21:28.931Z,27.17
2018-05-18T18:23:55.337Z,29.53
2018-05-18T18:26:21.026Z,26.77
2018-05-18T18:28:47.065Z,28.30
2018-05-18T18:31:12.693Z,25.90
2018-05-18T18:33:39.071Z,24.70
2018-05-18T18:36:04.739Z,25.63
2018-05-18T18:38:31.532Z,22.73
2018-05-18T18:40:57.113Z,27.50
2018-05-18T18:43:22.805Z,24.90
2018-05-18T18:45:49.502Z,26.77
2018-05-18T18:48:15.078Z,25.67
2018-05-18T18:50:40.892Z,28.97
2018-05-18T18:53:07.467Z,26.30
2018-05-18T18:55:33.242Z,24.40
2018-05-18T18:57:59.932Z,24.55
2018-05-18T19:00:25.531Z,24.90
2018-05-18T19:02:51.193Z,26.00
2018-05-18T19:05:17.460Z,24.00
2018-05-18T19:07:43.103Z,24.77
2018-05-18T19:10:08.661Z,24.27
2018-05-18T19:12:34.421Z,26.60
2018-05-18T19:15:00.024Z,25.57
2018-05-18T19:17:25.870Z,27.13
2018-05-18T19:19:51.604Z,25.53
2018-05-18T19:22:17.165Z,23.17
2018-05-18T19:24:42.751Z,28.83
2018-05-18T19:27:08.517Z,21.63
2018-05-18T19:29:34.183Z,24.70
2018-05-18T19:31:59.775Z,19.93
2018-05-18T19:34:25.868Z,23.87
2018-05-18T19:36:51.715Z,23.77
2018-05-18T19:39:17.285Z,21.57
2018-05-18T19:41:43.157Z,19.80
2018-05-18T19:44:08.778Z,22.57
2018-05-18T19:46:34.451Z,22.27
2018-05-18T19:49:00.412Z,17.97
2018-05-18T19:51:26.064Z,17.67
2018-05-18T19:53:51.711Z,17.27
2018-05-18T19:56:17.849Z,15.73
2018-05-18T19:58:43.417Z,15.20
2018-05-18T20:01:09.069Z,16.47
2018-05-18T20:03:35.020Z,17.50
2018-05-18T20:06:00.701Z,15.17
2018-05-18T20:08:26.286Z,14.33
2018-05-18T20:10:52.035Z,15.70
2018-05-18T20:13:17.598Z,13.27
2018-05-18T20:15:43.188Z,18.27
2018-05-18T20:18:09.046Z,15.80
2018-05-18T20:20:34.702Z,16.27
2018-05-18T20:23:00.466Z,16.90
2018-05-18T20:25:26.333Z,15.87
2018-05-18T20:27:51.909Z,14.63
2018-05-18T20:30:17.488Z,15.03
2018-05-18T20:35:14.725Z,15.23
2018-05-18T20:37:40.384Z,17.67
2018-05-18T20:40:05.957Z,14.70
2018-05-18T20:42:31.809Z,13.73
2018-05-18T20:44:57.509Z,16.33
2018-05-18T20:47:23.368Z,13.47
2018-05-18T20:49:49.344Z,14.17
2018-05-18T20:52:15.401Z,14.00
2018-05-18T20:54:41.459Z,11.83
2018-05-18T20:57:07.129Z,16.00
2018-05-18T20:59:32.722Z,16.43
2018-05-18T21:01:58.612Z,14.50
2018-05-18T21:04:24.287Z,14.23
2018-05-18T21:06:49.981Z,14.93
2018-05-18T21:09:15.729Z,14.47
2018-05-18T21:11:41.385Z,15.13
2018-05-18T21:14:06.970Z,15.90
2018-05-18T21:16:32.728Z,15.40
2018-05-18T21:18:58.627Z,17.60
2018-05-18T21:21:24.302Z,16.63
2018-05-18T21:23:50.175Z,14.40
2018-05-18T21:26:15.892Z,14.03
2018-05-18T21:28:41.558Z,14.87
2018-05-18T21:31:07.307Z,17.20
2018-05-18T21:33:33.170Z,17.37
2018-05-18T21:35:58.784Z,15.93
2018-05-18T21:38:24.451Z,15.73
2018-05-18T21:40:50.197Z,15.17
2018-05-18T21:43:16.313Z,14.50
2018-05-18T21:45:41.896Z,13.33
2018-05-18T21:48:08.643Z,12.10
2018-05-18T21:50:34.308Z,15.97
2018-05-18T21:52:59.929Z,15.07
2018-05-18T21:55:25.713Z,15.97
2018-05-18T21:57:51.314Z,14.67
2018-05-18T22:00:16.883Z,15.90
2018-05-18T22:02:42.757Z,15.33
2018-05-18T22:05:08.813Z,15.80
2018-05-18T22:07:34.404Z,15.23
2018-05-18T22:09:59.960Z,11.57
2018-05-18T22:12:25.924Z,18.80
2018-05-18T22:14:51.745Z,19.90
2018-05-18T22:17:17.427Z,15.67
2018-05-18T22:19:43.057Z,19.73
2018-05-18T22:22:08.801Z,18.67
2018-05-18T22:24:34.405Z,22.73
2018-05-18T22:26:59.964Z,15.90
2018-05-18T22:29:25.813Z,15.27
2018-05-18T22:31:51.445Z,21.23
2018-05-18T22:34:17.370Z,17.87
2018-05-18T22:36:43.177Z,15.83
2018-05-18T22:39:08.851Z,18.20
2018-05-18T22:41:34.427Z,18.03
2018-05-18T22:44:00.266Z,15.53
2018-05-18T22:46:25.837Z,16.27
2018-05-18T22:48:51.405Z,19.00
2018-05-18T22:51:17.402Z,15.80
2018-05-18T22:53:43.184Z,17.20
2018-05-18T22:56:08.874Z,18.27
2018-05-18T22:58:34.654Z,18.33
2018-05-18T23:01:00.250Z,17.03
2018-05-18T23:03:25.892Z,14.10
2018-05-18T23:05:51.634Z,15.67
2018-05-18T23:08:17.201Z,16.07
2018-05-18T23:10:42.837Z,16.97
2018-05-18T23:13:08.837Z,14.00
2018-05-18T23:15:34.504Z,15.93
2018-05-18T23:18:00.341Z,19.50
2018-05-18T23:20:25.854Z,17.07
2018-05-18T23:22:51.431Z,17.10
2018-05-18T23:25:17.248Z,15.80
2018-05-18T23:27:42.825Z,18.23
2018-05-18T23:30:08.394Z,16.83
2018-05-18T23:32:34.294Z,17.50
2018-05-18T23:35:00.141Z,18.30
2018-05-18T23:37:25.800Z,18.50
2018-05-18T23:39:52.546Z,16.47
2018-05-18T23:42:18.126Z,16.10
2018-05-18T23:44:43.699Z,20.17
2018-05-18T23:47:09.519Z,16.43
2018-05-18T23:49:35.721Z,18.70
2018-05-18T23:52:01.405Z,15.03
2018-05-18T23:54:26.957Z,20.33
2018-05-18T23:56:52.725Z,17.87
2018-05-18T23:59:18.428Z,18.20
